sensor_id;sensor_type;location;lat;lon;timestamp;pressure;altitude;pressure_sealevel;temperature
76713;BMP280;65640;43.154;25.658;2023-06-01T00:00:33;100778.31;;;16.49
76713;BMP280;65640;43.154;25.658;2023-06-01T00:02:59;100771.91;;;16.41
76713;BMP280;65640;43.154;25.658;2023-06-01T00:05:24;100766.91;;;16.40
76713;BMP280;65640;43.154;25.658;2023-06-01T00:07:50;100773.25;;;16.39
76713;BMP280;65640;43.154;25.658;2023-06-01T00:10:16;100774.94;;;16.35
76713;BMP280;65640;43.154;25.658;2023-06-01T00:12:42;100776.91;;;16.29
76713;BMP280;65640;43.154;25.658;2023-06-01T00:15:08;100778.31;;;16.27
76713;BMP280;65640;43.154;25.658;2023-06-01T00:17:33;100783.25;;;16.20
76713;BMP280;65640;43.154;25.658;2023-06-01T00:19:59;100782.41;;;16.10
76713;BMP280;65640;43.154;25.658;2023-06-01T00:22:34;100780.66;;;16.06
76713;BMP280;65640;43.154;25.658;2023-06-01T00:25:07;100776.03;;;16.12
76713;BMP280;65640;43.154;25.658;2023-06-01T00:27:32;100783.47;;;16.09
76713;BMP280;65640;43.154;25.658;2023-06-01T00:29:58;100787.94;;;16.00
76713;BMP280;65640;43.154;25.658;2023-06-01T00:32:23;100785.16;;;16.05
76713;BMP280;65640;43.154;25.658;2023-06-01T00:34:49;100793.25;;;16.09
76713;BMP280;65640;43.154;25.658;2023-06-01T00:37:14;100787.78;;;16.05
76713;BMP280;65640;43.154;25.658;2023-06-01T00:39:39;100788.88;;;16.04
76713;BMP280;65640;43.154;25.658;2023-06-01T00:42:05;100781.72;;;16.05
76713;BMP280;65640;43.154;25.658;2023-06-01T00:44:31;100784.66;;;16.03
76713;BMP280;65640;43.154;25.658;2023-06-01T00:46:56;100787.28;;;16.03
76713;BMP280;65640;43.154;25.658;2023-06-01T00:49:24;100780.94;;;16.04
76713;BMP280;65640;43.154;25.658;2023-06-01T00:51:50;100782.00;;;16.03
76713;BMP280;65640;43.154;25.658;2023-06-01T00:54:16;100782.00;;;16.03
76713;BMP280;65640;43.154;25.658;2023-06-01T00:56:41;100775.31;;;15.97
76713;BMP280;65640;43.154;25.658;2023-06-01T00:59:07;100777.38;;;16.00
76713;BMP280;65640;43.154;25.658;2023-06-01T01:01:33;100779.00;;;15.96
76713;BMP280;65640;43.154;25.658;2023-06-01T01:03:58;100774.94;;;15.90
76713;BMP280;65640;43.154;25.658;2023-06-01T01:09:10;100781.19;;;15.81
76713;BMP280;65640;43.154;25.658;2023-06-01T01:11:37;100774.19;;;15.76
76713;BMP280;65640;43.154;25.658;2023-06-01T01:14:27;100787.50;;;15.71
76713;BMP280;65640;43.154;25.658;2023-06-01T01:17:13;100789.69;;;15.55
76713;BMP280;65640;43.154;25.658;2023-06-01T01:20:03;100786.06;;;15.51
76713;BMP280;65640;43.154;25.658;2023-06-01T01:28:29;100784.38;;;15.42
76713;BMP280;65640;43.154;25.658;2023-06-01T01:30:56;100787.69;;;15.47
76713;BMP280;65640;43.154;25.658;2023-06-01T01:33:24;100787.69;;;15.47
76713;BMP280;65640;43.154;25.658;2023-06-01T01:35:51;100790.44;;;15.42
76713;BMP280;65640;43.154;25.658;2023-06-01T01:38:17;100778.34;;;15.41
76713;BMP280;65640;43.154;25.658;2023-06-01T01:40:42;100782.06;;;15.40
76713;BMP280;65640;43.154;25.658;2023-06-01T01:43:08;100784.97;;;15.39
76713;BMP280;65640;43.154;25.658;2023-06-01T01:45:34;100788.69;;;15.38
76713;BMP280;65640;43.154;25.658;2023-06-01T01:48:11;100786.63;;;15.35
76713;BMP280;65640;43.154;25.658;2023-06-01T01:50:51;100795.16;;;15.32
76713;BMP280;65640;43.154;25.658;2023-06-01T01:53:17;100798.84;;;15.31
76713;BMP280;65640;43.154;25.658;2023-06-01T01:55:46;100801.31;;;15.27
76713;BMP280;65640;43.154;25.658;2023-06-01T01:58:12;100792.59;;;15.27
76713;BMP280;65640;43.154;25.658;2023-06-01T02:00:38;100798.47;;;15.24
76713;BMP280;65640;43.154;25.658;2023-06-01T02:03:12;100789.09;;;15.17
76713;BMP280;65640;43.154;25.658;2023-06-01T02:05:38;100792.28;;;15.14
76713;BMP280;65640;43.154;25.658;2023-06-01T02:08:03;100800.97;;;15.15
76713;BMP280;65640;43.154;25.658;2023-06-01T02:10:29;100801.28;;;15.13
76713;BMP280;65640;43.154;25.658;2023-06-01T02:12:54;100796.69;;;15.05
76713;BMP280;65640;43.154;25.658;2023-06-01T02:15:20;100807.75;;;15.07
76713;BMP280;65640;43.154;25.658;2023-06-01T02:17:45;100804.81;;;15.09
76713;BMP280;65640;43.154;25.658;2023-06-01T02:20:11;100802.47;;;15.07
76713;BMP280;65640;43.154;25.658;2023-06-01T02:22:37;100805.13;;;15.07
76713;BMP280;65640;43.154;25.658;2023-06-01T02:25:02;100802.47;;;15.07
76713;BMP280;65640;43.154;25.658;2023-06-01T02:27:30;100807.44;;;15.09
76713;BMP280;65640;43.154;25.658;2023-06-01T02:29:55;100816.81;;;15.01
76713;BMP280;65640;43.154;25.658;2023-06-01T02:32:21;100809.97;;;15.00
76713;BMP280;65640;43.154;25.658;2023-06-01T02:34:46;100809.28;;;14.95
76713;BMP280;65640;43.154;25.658;2023-06-01T02:37:12;100807.69;;;14.94
76713;BMP280;65640;43.154;25.658;2023-06-01T02:39:37;100811.50;;;14.88
76713;BMP280;65640;43.154;25.658;2023-06-01T02:42:03;100812.47;;;14.78
76713;BMP280;65640;43.154;25.658;2023-06-01T02:44:29;100812.22;;;14.74
76713;BMP280;65640;43.154;25.658;2023-06-01T02:46:54;100825.50;;;14.69
76713;BMP280;65640;43.154;25.658;2023-06-01T02:49:20;100824.59;;;14.60
76713;BMP280;65640;43.154;25.658;2023-06-01T02:51:45;100824.59;;;14.60
76713;BMP280;65640;43.154;25.658;2023-06-01T02:54:11;100820.97;;;14.56
76713;BMP280;65640;43.154;25.658;2023-06-01T02:56:36;100816.69;;;14.60
76713;BMP280;65640;43.154;25.658;2023-06-01T02:59:01;100825.88;;;14.63
76713;BMP280;65640;43.154;25.658;2023-06-01T03:01:28;100822.75;;;14.61
76713;BMP280;65640;43.154;25.658;2023-06-01T03:03:53;100828.03;;;14.61
76713;BMP280;65640;43.154;25.658;2023-06-01T03:06:20;100830.72;;;14.56
76713;BMP280;65640;43.154;25.658;2023-06-01T03:08:48;100831.50;;;14.56
76713;BMP280;65640;43.154;25.658;2023-06-01T03:11:15;100836.94;;;14.65
76713;BMP280;65640;43.154;25.658;2023-06-01T03:13:40;100836.81;;;14.70
76713;BMP280;65640;43.154;25.658;2023-06-01T03:16:05;100833.13;;;14.71
76713;BMP280;65640;43.154;25.658;2023-06-01T03:18:31;100837.81;;;14.74
76713;BMP280;65640;43.154;25.658;2023-06-01T03:20:56;100838.81;;;14.78
76713;BMP280;65640;43.154;25.658;2023-06-01T03:23:22;100831.19;;;14.77
76713;BMP280;65640;43.154;25.658;2023-06-01T03:25:47;100836.25;;;14.73
76713;BMP280;65640;43.154;25.658;2023-06-01T03:28:13;100835.47;;;14.72
76713;BMP280;65640;43.154;25.658;2023-06-01T03:30:38;100846.28;;;14.71
76713;BMP280;65640;43.154;25.658;2023-06-01T03:33:03;100839.25;;;14.66
76713;BMP280;65640;43.154;25.658;2023-06-01T03:35:29;100843.94;;;14.88
76713;BMP280;65640;43.154;25.658;2023-06-01T03:37:55;100839.84;;;14.96
76713;BMP280;65640;43.154;25.658;2023-06-01T03:40:20;100839.44;;;15.02
76713;BMP280;65640;43.154;25.658;2023-06-01T03:42:47;100831.97;;;15.09
76713;BMP280;65640;43.154;25.658;2023-06-01T03:45:14;100835.00;;;15.16
76713;BMP280;65640;43.154;25.658;2023-06-01T03:47:41;100844.38;;;15.23
76713;BMP280;65640;43.154;25.658;2023-06-01T03:50:08;100841.84;;;15.17
76713;BMP280;65640;43.154;25.658;2023-06-01T03:52:34;100833.84;;;15.23
76713;BMP280;65640;43.154;25.658;2023-06-01T03:55:01;100831.91;;;15.28
76713;BMP280;65640;43.154;25.658;2023-06-01T03:57:27;100839.41;;;15.35
76713;BMP280;65640;43.154;25.658;2023-06-01T03:59:53;100837.38;;;15.45
76713;BMP280;65640;43.154;25.658;2023-06-01T04:02:18;100836.22;;;15.51
76713;BMP280;65640;43.154;25.658;2023-06-01T04:04:44;100830.53;;;15.58
76713;BMP280;65640;43.154;25.658;2023-06-01T04:07:14;100832.06;;;15.59
76713;BMP280;65640;43.154;25.658;2023-06-01T04:09:43;100829.53;;;15.68
76713;BMP280;65640;43.154;25.658;2023-06-01T04:12:09;100828.66;;;15.72
76713;BMP280;65640;43.154;25.658;2023-06-01T04:14:36;100834.59;;;15.64
76713;BMP280;65640;43.154;25.658;2023-06-01T04:17:01;100832.47;;;15.66
76713;BMP280;65640;43.154;25.658;2023-06-01T04:19:27;100836.94;;;15.79
76713;BMP280;65640;43.154;25.658;2023-06-01T04:21:52;100830.28;;;15.95
76713;BMP280;65640;43.154;25.658;2023-06-01T04:24:18;100835.91;;;16.16
76713;BMP280;65640;43.154;25.658;2023-06-01T04:26:44;100834.16;;;16.34
76713;BMP280;65640;43.154;25.658;2023-06-01T04:29:09;100832.13;;;16.53
76713;BMP280;65640;43.154;25.658;2023-06-01T04:31:37;100829.56;;;16.70
76713;BMP280;65640;43.154;25.658;2023-06-01T04:34:03;100832.97;;;16.84
76713;BMP280;65640;43.154;25.658;2023-06-01T04:36:32;100835.66;;;17.01
76713;BMP280;65640;43.154;25.658;2023-06-01T04:38:58;100826.06;;;17.14
76713;BMP280;65640;43.154;25.658;2023-06-01T04:41:24;100837.47;;;17.23
76713;BMP280;65640;43.154;25.658;2023-06-01T04:43:52;100834.56;;;17.42
76713;BMP280;65640;43.154;25.658;2023-06-01T04:46:19;100832.88;;;17.46
76713;BMP280;65640;43.154;25.658;2023-06-01T04:48:45;100829.13;;;17.47
76713;BMP280;65640;43.154;25.658;2023-06-01T04:51:12;100826.03;;;17.62
76713;BMP280;65640;43.154;25.658;2023-06-01T04:53:48;100840.56;;;17.90
76713;BMP280;65640;43.154;25.658;2023-06-01T04:56:18;100836.81;;;18.09
76713;BMP280;65640;43.154;25.658;2023-06-01T04:58:47;100838.84;;;17.94
76713;BMP280;65640;43.154;25.658;2023-06-01T05:01:13;100837.78;;;17.95
76713;BMP280;65640;43.154;25.658;2023-06-01T05:03:41;100840.59;;;18.08
76713;BMP280;65640;43.154;25.658;2023-06-01T05:06:06;100845.88;;;18.25
76713;BMP280;65640;43.154;25.658;2023-06-01T05:08:32;100843.38;;;18.11
76713;BMP280;65640;43.154;25.658;2023-06-01T05:10:58;100844.31;;;18.24
76713;BMP280;65640;43.154;25.658;2023-06-01T05:13:24;100842.88;;;18.52
76713;BMP280;65640;43.154;25.658;2023-06-01T05:15:49;100842.31;;;18.84
76713;BMP280;65640;43.154;25.658;2023-06-01T05:18:14;100839.13;;;19.00
76713;BMP280;65640;43.154;25.658;2023-06-01T05:20:40;100850.38;;;19.05
76713;BMP280;65640;43.154;25.658;2023-06-01T05:23:05;100849.66;;;19.17
76713;BMP280;65640;43.154;25.658;2023-06-01T05:25:31;100845.47;;;19.45
76713;BMP280;65640;43.154;25.658;2023-06-01T05:27:56;100850.56;;;19.79
76713;BMP280;65640;43.154;25.658;2023-06-01T05:30:22;100851.25;;;19.88
76713;BMP280;65640;43.154;25.658;2023-06-01T05:32:47;100847.78;;;20.09
76713;BMP280;65640;43.154;25.658;2023-06-01T05:35:12;100847.63;;;20.26
76713;BMP280;65640;43.154;25.658;2023-06-01T05:37:38;100845.22;;;20.45
76713;BMP280;65640;43.154;25.658;2023-06-01T05:40:03;100839.59;;;20.59
76713;BMP280;65640;43.154;25.658;2023-06-01T05:42:32;100848.19;;;20.88
76713;BMP280;65640;43.154;25.658;2023-06-01T05:44:57;100850.81;;;21.01
76713;BMP280;65640;43.154;25.658;2023-06-01T05:47:23;100856.16;;;21.01
76713;BMP280;65640;43.154;25.658;2023-06-01T05:49:48;100844.84;;;21.16
76713;BMP280;65640;43.154;25.658;2023-06-01T05:52:14;100845.81;;;21.35
76713;BMP280;65640;43.154;25.658;2023-06-01T05:54:39;100849.00;;;21.41
76713;BMP280;65640;43.154;25.658;2023-06-01T05:57:05;100854.09;;;21.58
76713;BMP280;65640;43.154;25.658;2023-06-01T05:59:31;100847.59;;;21.71
76713;BMP280;65640;43.154;25.658;2023-06-01T06:01:56;100848.25;;;21.80
76713;BMP280;65640;43.154;25.658;2023-06-01T06:04:22;100845.19;;;21.94
76713;BMP280;65640;43.154;25.658;2023-06-01T06:06:47;100839.53;;;22.11
76713;BMP280;65640;43.154;25.658;2023-06-01T06:09:13;100839.03;;;22.37
76713;BMP280;65640;43.154;25.658;2023-06-01T06:11:40;100829.38;;;22.64
76713;BMP280;65640;43.154;25.658;2023-06-01T06:14:05;100831.81;;;22.69
76713;BMP280;65640;43.154;25.658;2023-06-01T06:16:31;100828.09;;;22.58
76713;BMP280;65640;43.154;25.658;2023-06-01T06:18:56;100831.53;;;22.58
76713;BMP280;65640;43.154;25.658;2023-06-01T06:21:21;100831.88;;;22.72
76713;BMP280;65640;43.154;25.658;2023-06-01T06:23:49;100826.00;;;22.82
76713;BMP280;65640;43.154;25.658;2023-06-01T06:26:14;100825.75;;;22.87
76713;BMP280;65640;43.154;25.658;2023-06-01T06:28:39;100827.13;;;22.97
76713;BMP280;65640;43.154;25.658;2023-06-01T06:31:05;100822.22;;;23.18
76713;BMP280;65640;43.154;25.658;2023-06-01T06:33:30;100833.13;;;23.29
76713;BMP280;65640;43.154;25.658;2023-06-01T06:35:56;100825.81;;;23.26
76713;BMP280;65640;43.154;25.658;2023-06-01T06:38:21;100829.50;;;23.37
76713;BMP280;65640;43.154;25.658;2023-06-01T06:40:47;100830.19;;;23.34
76713;BMP280;65640;43.154;25.658;2023-06-01T06:43:12;100832.69;;;23.27
76713;BMP280;65640;43.154;25.658;2023-06-01T06:45:39;100830.75;;;23.43
76713;BMP280;65640;43.154;25.658;2023-06-01T06:48:04;100830.78;;;23.66
76713;BMP280;65640;43.154;25.658;2023-06-01T06:50:30;100837.06;;;23.73
76713;BMP280;65640;43.154;25.658;2023-06-01T06:52:57;100836.59;;;23.90
76713;BMP280;65640;43.154;25.658;2023-06-01T06:55:24;100841.53;;;24.11
76713;BMP280;65640;43.154;25.658;2023-06-01T06:57:49;100830.31;;;24.25
76713;BMP280;65640;43.154;25.658;2023-06-01T07:00:15;100832.25;;;24.50
76713;BMP280;65640;43.154;25.658;2023-06-01T07:02:41;100832.63;;;24.75
76713;BMP280;65640;43.154;25.658;2023-06-01T07:05:07;100834.56;;;24.78
76713;BMP280;65640;43.154;25.658;2023-06-01T07:07:33;100839.00;;;24.93
76713;BMP280;65640;43.154;25.658;2023-06-01T07:09:59;100832.25;;;25.06
76713;BMP280;65640;43.154;25.658;2023-06-01T07:12:24;100835.53;;;25.23
76713;BMP280;65640;43.154;25.658;2023-06-01T07:14:50;100837.56;;;25.33
76713;BMP280;65640;43.154;25.658;2023-06-01T07:17:15;100834.88;;;25.33
76713;BMP280;65640;43.154;25.658;2023-06-01T07:19:40;100838.81;;;25.42
76713;BMP280;65640;43.154;25.658;2023-06-01T07:22:07;100833.19;;;25.17
76713;BMP280;65640;43.154;25.658;2023-06-01T07:24:33;100834.38;;;25.24
76713;BMP280;65640;43.154;25.658;2023-06-01T07:26:58;100832.09;;;25.26
76713;BMP280;65640;43.154;25.658;2023-06-01T07:29:25;100832.91;;;24.96
76713;BMP280;65640;43.154;25.658;2023-06-01T07:31:52;100836.63;;;24.88
76713;BMP280;65640;43.154;25.658;2023-06-01T07:34:18;100835.31;;;24.79
76713;BMP280;65640;43.154;25.658;2023-06-01T07:36:45;100829.41;;;25.26
76713;BMP280;65640;43.154;25.658;2023-06-01T07:39:11;100839.75;;;25.24
76713;BMP280;65640;43.154;25.658;2023-06-01T07:41:36;100827.63;;;25.03
76713;BMP280;65640;43.154;25.658;2023-06-01T07:44:02;100830.13;;;25.19
76713;BMP280;65640;43.154;25.658;2023-06-01T07:46:28;100825.66;;;25.30
76713;BMP280;65640;43.154;25.658;2023-06-01T07:48:53;100827.34;;;25.45
76713;BMP280;65640;43.154;25.658;2023-06-01T07:51:18;100826.13;;;25.39
76713;BMP280;65640;43.154;25.658;2023-06-01T07:53:44;100826.41;;;25.64
76713;BMP280;65640;43.154;25.658;2023-06-01T07:56:09;100827.75;;;25.84
76713;BMP280;65640;43.154;25.658;2023-06-01T07:58:35;100815.59;;;25.97
76713;BMP280;65640;43.154;25.658;2023-06-01T08:01:02;100813.72;;;26.05
76713;BMP280;65640;43.154;25.658;2023-06-01T08:03:27;100804.97;;;26.11
76713;BMP280;65640;43.154;25.658;2023-06-01T08:05:53;100809.19;;;26.12
76713;BMP280;65640;43.154;25.658;2023-06-01T08:08:24;100803.69;;;25.98
76713;BMP280;65640;43.154;25.658;2023-06-01T08:10:50;100797.19;;;25.99
76713;BMP280;65640;43.154;25.658;2023-06-01T08:13:16;100805.13;;;26.32
76713;BMP280;65640;43.154;25.658;2023-06-01T08:15:44;100795.09;;;26.26
76713;BMP280;65640;43.154;25.658;2023-06-01T08:18:15;100797.06;;;26.32
76713;BMP280;65640;43.154;25.658;2023-06-01T08:20:40;100795.19;;;26.40
76713;BMP280;65640;43.154;25.658;2023-06-01T08:23:07;100797.88;;;26.40
76713;BMP280;65640;43.154;25.658;2023-06-01T08:25:32;100789.44;;;26.42
76713;BMP280;65640;43.154;25.658;2023-06-01T08:27:58;100794.78;;;26.42
76713;BMP280;65640;43.154;25.658;2023-06-01T08:30:26;100784.81;;;26.39
76713;BMP280;65640;43.154;25.658;2023-06-01T08:32:52;100778.75;;;26.52
76713;BMP280;65640;43.154;25.658;2023-06-01T08:35:17;100782.25;;;26.60
76713;BMP280;65640;43.154;25.658;2023-06-01T08:37:46;100784.56;;;26.65
76713;BMP280;65640;43.154;25.658;2023-06-01T08:40:12;100778.00;;;26.59
76713;BMP280;65640;43.154;25.658;2023-06-01T08:43:00;100774.56;;;26.55
76713;BMP280;65640;43.154;25.658;2023-06-01T08:45:28;100781.16;;;26.71
76713;BMP280;65640;43.154;25.658;2023-06-01T08:47:54;100767.78;;;26.96
76713;BMP280;65640;43.154;25.658;2023-06-01T08:50:21;100772.06;;;27.08
76713;BMP280;65640;43.154;25.658;2023-06-01T08:52:47;100778.97;;;26.98
76713;BMP280;65640;43.154;25.658;2023-06-01T08:55:14;100773.06;;;26.68
76713;BMP280;65640;43.154;25.658;2023-06-01T08:57:42;100763.81;;;26.55
76713;BMP280;65640;43.154;25.658;2023-06-01T09:00:11;100767.81;;;27.00
76713;BMP280;65640;43.154;25.658;2023-06-01T09:02:36;100762.50;;;27.38
76713;BMP280;65640;43.154;25.658;2023-06-01T09:05:02;100755.19;;;27.71
76713;BMP280;65640;43.154;25.658;2023-06-01T09:07:28;100759.41;;;27.89
76713;BMP280;65640;43.154;25.658;2023-06-01T09:09:56;100753.31;;;27.61
76713;BMP280;65640;43.154;25.658;2023-06-01T09:12:27;100750.22;;;27.44
76713;BMP280;65640;43.154;25.658;2023-06-01T09:17:34;100740.16;;;28.05
76713;BMP280;65640;43.154;25.658;2023-06-01T09:20:00;100739.00;;;27.99
76713;BMP280;65640;43.154;25.658;2023-06-01T09:22:46;100737.03;;;28.17
76713;BMP280;65640;43.154;25.658;2023-06-01T09:25:12;100736.16;;;28.45
76713;BMP280;65640;43.154;25.658;2023-06-01T09:27:47;100735.31;;;28.62
76713;BMP280;65640;43.154;25.658;2023-06-01T09:30:13;100731.03;;;28.68
76713;BMP280;65640;43.154;25.658;2023-06-01T09:32:39;100724.41;;;28.87
76713;BMP280;65640;43.154;25.658;2023-06-01T09:35:05;100721.78;;;28.76
76713;BMP280;65640;43.154;25.658;2023-06-01T09:37:36;100724.09;;;28.70
76713;BMP280;65640;43.154;25.658;2023-06-01T09:40:02;100720.72;;;28.59
76713;BMP280;65640;43.154;25.658;2023-06-01T09:42:41;100722.16;;;28.78
76713;BMP280;65640;43.154;25.658;2023-06-01T09:47:43;100721.34;;;28.85
76713;BMP280;65640;43.154;25.658;2023-06-01T09:50:09;100722.06;;;28.92
76713;BMP280;65640;43.154;25.658;2023-06-01T09:52:35;100723.63;;;28.86
76713;BMP280;65640;43.154;25.658;2023-06-01T09:55:07;100710.41;;;29.06
76713;BMP280;65640;43.154;25.658;2023-06-01T09:57:33;100707.97;;;29.22
76713;BMP280;65640;43.154;25.658;2023-06-01T09:59:58;100719.94;;;28.59
76713;BMP280;65640;43.154;25.658;2023-06-01T10:02:26;100708.50;;;28.37
76713;BMP280;65640;43.154;25.658;2023-06-01T10:04:52;100711.91;;;28.45
76713;BMP280;65640;43.154;25.658;2023-06-01T10:07:25;100709.94;;;28.59
76713;BMP280;65640;43.154;25.658;2023-06-01T10:09:54;100701.75;;;28.77
76713;BMP280;65640;43.154;25.658;2023-06-01T10:12:21;100697.41;;;28.94
76713;BMP280;65640;43.154;25.658;2023-06-01T10:14:47;100689.50;;;29.17
76713;BMP280;65640;43.154;25.658;2023-06-01T10:17:13;100677.69;;;29.45
76713;BMP280;65640;43.154;25.658;2023-06-01T10:19:41;100679.94;;;29.50
76713;BMP280;65640;43.154;25.658;2023-06-01T10:22:07;100679.53;;;29.51
76713;BMP280;65640;43.154;25.658;2023-06-01T10:24:35;100676.13;;;29.47
76713;BMP280;65640;43.154;25.658;2023-06-01T10:27:19;100676.53;;;29.46
76713;BMP280;65640;43.154;25.658;2023-06-01T10:29:46;100677.03;;;29.30
76713;BMP280;65640;43.154;25.658;2023-06-01T10:34:55;100678.03;;;29.06
76713;BMP280;65640;43.154;25.658;2023-06-01T10:37:20;100666.38;;;29.19
76713;BMP280;65640;43.154;25.658;2023-06-01T10:39:46;100672.78;;;29.32
76713;BMP280;65640;43.154;25.658;2023-06-01T10:47:50;100661.75;;;29.20
76713;BMP280;65640;43.154;25.658;2023-06-01T10:52:37;100652.50;;;29.17
76713;BMP280;65640;43.154;25.658;2023-06-01T10:57:34;100641.50;;;30.06
76713;BMP280;65640;43.154;25.658;2023-06-01T11:05:49;100622.38;;;30.47
76713;BMP280;65640;43.154;25.658;2023-06-01T11:13:37;100611.59;;;30.93
76713;BMP280;65640;43.154;25.658;2023-06-01T11:19:04;100614.69;;;31.35
76713;BMP280;65640;43.154;25.658;2023-06-01T11:21:35;100607.13;;;31.26
76713;BMP280;65640;43.154;25.658;2023-06-01T11:29:16;100604.63;;;30.92
76713;BMP280;65640;43.154;25.658;2023-06-01T11:31:49;100591.75;;;30.80
76713;BMP280;65640;43.154;25.658;2023-06-01T11:34:18;100590.41;;;30.88
76713;BMP280;65640;43.154;25.658;2023-06-01T11:36:48;100591.19;;;31.08
76713;BMP280;65640;43.154;25.658;2023-06-01T11:39:21;100584.00;;;31.21
76713;BMP280;65640;43.154;25.658;2023-06-01T11:41:48;100584.75;;;31.02
76713;BMP280;65640;43.154;25.658;2023-06-01T11:44:14;100581.78;;;30.74
76713;BMP280;65640;43.154;25.658;2023-06-01T11:46:53;100576.16;;;30.84
76713;BMP280;65640;43.154;25.658;2023-06-01T11:49:18;100575.47;;;31.03
76713;BMP280;65640;43.154;25.658;2023-06-01T11:51:44;100570.03;;;31.03
76713;BMP280;65640;43.154;25.658;2023-06-01T11:54:10;100568.22;;;30.54
76713;BMP280;65640;43.154;25.658;2023-06-01T11:56:36;100554.47;;;30.41
76713;BMP280;65640;43.154;25.658;2023-06-01T11:59:05;100557.19;;;30.64
76713;BMP280;65640;43.154;25.658;2023-06-01T12:01:36;100558.88;;;30.58
76713;BMP280;65640;43.154;25.658;2023-06-01T12:04:04;100563.50;;;30.35
76713;BMP280;65640;43.154;25.658;2023-06-01T12:06:33;100552.31;;;30.33
76713;BMP280;65640;43.154;25.658;2023-06-01T12:08:58;100551.38;;;30.43
76713;BMP280;65640;43.154;25.658;2023-06-01T12:11:25;100554.09;;;30.66
76713;BMP280;65640;43.154;25.658;2023-06-01T12:13:54;100558.00;;;30.85
76713;BMP280;65640;43.154;25.658;2023-06-01T12:16:21;100560.81;;;31.20
76713;BMP280;65640;43.154;25.658;2023-06-01T12:18:47;100548.78;;;31.41
76713;BMP280;65640;43.154;25.658;2023-06-01T12:21:13;100545.47;;;31.14
76713;BMP280;65640;43.154;25.658;2023-06-01T12:23:38;100536.75;;;31.26
76713;BMP280;65640;43.154;25.658;2023-06-01T12:26:04;100536.50;;;31.37
76713;BMP280;65640;43.154;25.658;2023-06-01T12:28:53;100525.97;;;31.22
76713;BMP280;65640;43.154;25.658;2023-06-01T12:31:20;100527.28;;;31.34
76713;BMP280;65640;43.154;25.658;2023-06-01T12:33:46;100521.00;;;31.57
76713;BMP280;65640;43.154;25.658;2023-06-01T12:36:35;100525.22;;;31.58
76713;BMP280;65640;43.154;25.658;2023-06-01T12:39:03;100523.34;;;31.55
76713;BMP280;65640;43.154;25.658;2023-06-01T12:41:30;100531.84;;;31.57
76713;BMP280;65640;43.154;25.658;2023-06-01T12:43:57;100527.22;;;31.38
76713;BMP280;65640;43.154;25.658;2023-06-01T12:46:29;100535.22;;;31.05
76713;BMP280;65640;43.154;25.658;2023-06-01T12:49:15;100521.88;;;31.14
76713;BMP280;65640;43.154;25.658;2023-06-01T12:51:44;100528.25;;;30.85
76713;BMP280;65640;43.154;25.658;2023-06-01T12:54:10;100529.19;;;31.17
76713;BMP280;65640;43.154;25.658;2023-06-01T12:56:37;100517.09;;;31.22
76713;BMP280;65640;43.154;25.658;2023-06-01T12:59:02;100509.59;;;31.29
76713;BMP280;65640;43.154;25.658;2023-06-01T13:01:28;100518.19;;;31.24
76713;BMP280;65640;43.154;25.658;2023-06-01T13:03:53;100513.81;;;31.30
76713;BMP280;65640;43.154;25.658;2023-06-01T13:06:19;100520.00;;;31.51
76713;BMP280;65640;43.154;25.658;2023-06-01T13:08:44;100516.19;;;31.48
76713;BMP280;65640;43.154;25.658;2023-06-01T13:11:10;100518.44;;;31.30
76713;BMP280;65640;43.154;25.658;2023-06-01T13:13:35;100515.09;;;31.26
76713;BMP280;65640;43.154;25.658;2023-06-01T13:16:01;100519.16;;;31.34
76713;BMP280;65640;43.154;25.658;2023-06-01T13:18:27;100517.28;;;31.51
76713;BMP280;65640;43.154;25.658;2023-06-01T13:20:53;100512.41;;;31.78
76713;BMP280;65640;43.154;25.658;2023-06-01T13:23:18;100516.25;;;31.61
76713;BMP280;65640;43.154;25.658;2023-06-01T13:25:45;100521.81;;;31.38
76713;BMP280;65640;43.154;25.658;2023-06-01T13:28:10;100520.56;;;31.22
76713;BMP280;65640;43.154;25.658;2023-06-01T13:30:38;100512.97;;;31.33
76713;BMP280;65640;43.154;25.658;2023-06-01T13:33:04;100509.41;;;31.20
76713;BMP280;65640;43.154;25.658;2023-06-01T13:35:30;100511.47;;;31.13
76713;BMP280;65640;43.154;25.658;2023-06-01T13:37:56;100505.16;;;31.19
76713;BMP280;65640;43.154;25.658;2023-06-01T13:40:22;100500.94;;;31.18
76713;BMP280;65640;43.154;25.658;2023-06-01T13:42:49;100503.31;;;31.32
76713;BMP280;65640;43.154;25.658;2023-06-01T13:45:16;100508.09;;;31.28
76713;BMP280;65640;43.154;25.658;2023-06-01T13:47:42;100513.59;;;31.41
76713;BMP280;65640;43.154;25.658;2023-06-01T13:50:08;100504.38;;;31.55
76713;BMP280;65640;43.154;25.658;2023-06-01T13:52:33;100500.28;;;31.66
76713;BMP280;65640;43.154;25.658;2023-06-01T13:54:59;100497.91;;;31.68
76713;BMP280;65640;43.154;25.658;2023-06-01T13:57:24;100497.56;;;31.50
76713;BMP280;65640;43.154;25.658;2023-06-01T13:59:50;100492.72;;;31.58
76713;BMP280;65640;43.154;25.658;2023-06-01T14:02:15;100495.13;;;31.72
76713;BMP280;65640;43.154;25.658;2023-06-01T14:04:40;100491.72;;;31.68
76713;BMP280;65640;43.154;25.658;2023-06-01T14:07:07;100493.75;;;31.48
76713;BMP280;65640;43.154;25.658;2023-06-01T14:09:33;100507.13;;;30.99
76713;BMP280;65640;43.154;25.658;2023-06-01T14:11:58;100519.94;;;30.76
76713;BMP280;65640;43.154;25.658;2023-06-01T14:14:24;100512.41;;;30.63
76713;BMP280;65640;43.154;25.658;2023-06-01T14:16:49;100503.78;;;30.26
76713;BMP280;65640;43.154;25.658;2023-06-01T14:19:15;100496.03;;;30.28
76713;BMP280;65640;43.154;25.658;2023-06-01T14:21:40;100500.25;;;30.06
76713;BMP280;65640;43.154;25.658;2023-06-01T14:24:06;100498.91;;;29.94
76713;BMP280;65640;43.154;25.658;2023-06-01T14:26:31;100512.06;;;29.62
76713;BMP280;65640;43.154;25.658;2023-06-01T14:28:57;100508.47;;;29.08